Terminal Aerodrome Forecast
Issued by NWS

Home | Current Version | Previous Version | Graphics & Text | Print | Product List | Glossary On
Versions: 1 2 3 4 5 6 7 8 9 10 11 12 13 14 15 16 17 18
000
FTUS43 KMPX 261125
TAFRNH
TAF
KRNH 261125Z 2612/2712 07005KT 6SM -DZ BR OVC005
      TEMPO 2612/2614 4SM -RA BR OVC003
     FM261400 05005KT 3SM -RA BR OVC003
     FM261800 02004KT 4SM -DZ BR OVC004
     FM262300 34004KT 6SM BR OVC005=

USA.gov is the U.S. government's official web portal to all federal, state and local government web resources and services.